Time;durP1;ratioP1;P1;durP2;ratioP2;P2;SDS_P1;SDS_P2;PMS_P1;PMS_P2;Temp;Humidity;BMP_temperature;BMP_pressure;BME280_temperature;BME280_humidity;BME280_pressure;Samples;Min_cycle;Max_cycle;Signal;HPM_P1;HPM_P2
2022/09/11 00:00:18;;;;;;;9.88;8.88;;;16.80;99.90;;;;;;5149338;27;20027;-81
2022/09/11 00:02:44;;;;;;;11.98;9.93;;;16.80;99.90;;;;;;5148320;27;20035;-81
2022/09/11 00:05:10;;;;;;;10.52;9.50;;;16.80;99.90;;;;;;5134400;27;20034;-81
2022/09/11 00:07:36;;;;;;;12.30;10.05;;;16.80;99.90;;;;;;5110265;28;20031;-81
2022/09/11 00:10:01;;;;;;;8.82;8.18;;;16.80;99.90;;;;;;5128847;28;20028;-81
2022/09/11 00:12:27;;;;;;;9.15;8.20;;;16.80;99.90;;;;;;5128543;28;20032;-81
2022/09/11 00:14:53;;;;;;;10.52;9.60;;;16.80;99.90;;;;;;5137854;27;20031;-80
2022/09/11 00:17:20;;;;;;;13.13;9.52;;;16.80;99.90;;;;;;5149113;27;20492;-81
2022/09/11 00:19:46;;;;;;;12.98;9.70;;;16.80;99.90;;;;;;5147868;27;20015;-81
2022/09/11 00:22:12;;;;;;;10.77;9.68;;;16.80;99.90;;;;;;5148950;27;20039;-80
2022/09/11 00:24:38;;;;;;;11.85;10.68;;;16.80;99.90;;;;;;5139042;27;20043;-81
2022/09/11 00:27:05;;;;;;;10.43;9.30;;;16.80;99.90;;;;;;5128183;28;20095;-81
2022/09/11 00:29:31;;;;;;;11.52;10.35;;;16.80;99.90;;;;;;5109960;28;20039;-81
2022/09/11 00:31:57;;;;;;;15.27;10.60;;;16.80;99.90;;;;;;5111880;27;20046;-81
2022/09/11 00:34:22;;;;;;;14.63;9.55;;;16.80;99.90;;;;;;5148489;27;20031;-80
2022/09/11 00:36:51;;;;;;;14.18;9.57;;;16.80;99.90;;;;;;5146596;27;20135;-81
2022/09/11 00:39:17;;;;;;;10.25;9.35;;;16.80;99.90;;;;;;5147629;27;20119;-81
2022/09/11 00:41:44;;;;;;;9.68;8.75;;;16.70;99.90;;;;;;5147974;27;20059;-81
2022/09/11 00:44:16;;;;;;;9.52;8.57;;;16.70;99.90;;;;;;5106295;28;20035;-81
2022/09/11 00:46:48;;;;;;;10.15;9.23;;;16.70;99.90;;;;;;5089539;28;20024;-81
2022/09/11 00:49:17;;;;;;;15.52;9.90;;;16.70;99.90;;;;;;5106164;28;20039;-81
2022/09/11 00:51:48;;;;;;;11.13;9.35;;;16.70;99.90;;;;;;5105891;28;20063;-81
2022/09/11 00:54:18;;;;;;;10.05;9.02;;;16.70;99.90;;;;;;5106165;28;20027;-80
2022/09/11 00:56:43;;;;;;;18.67;10.65;;;16.70;99.90;;;;;;5106171;28;20020;-81
2022/09/11 00:59:11;;;;;;;10.32;9.43;;;16.60;99.90;;;;;;5107232;28;20039;-81
2022/09/11 01:01:37;;;;;;;11.15;9.68;;;16.70;99.90;;;;;;5105798;28;20024;-80
2022/09/11 01:04:05;;;;;;;11.52;10.35;;;16.70;99.90;;;;;;5144987;27;20086;-81
2022/09/11 01:06:32;;;;;;;10.02;9.15;;;16.70;99.90;;;;;;5129697;27;20031;-81
2022/09/11 01:08:58;;;;;;;10.70;9.60;;;16.70;99.90;;;;;;5129654;27;20157;-81
2022/09/11 01:11:46;;;;;;;12.35;11.00;;;16.70;99.90;;;;;;5146836;27;20114;-81
2022/09/11 01:14:36;;;;;;;11.75;10.75;;;16.70;99.90;;;;;;5127825;27;20401;-81
2022/09/11 01:17:11;;;;;;;10.20;9.20;;;16.60;99.90;;;;;;5109044;28;20038;-81
2022/09/11 01:19:37;;;;;;;12.48;11.13;;;16.60;99.90;;;;;;5126064;28;20035;-81
2022/09/11 01:22:19;;;;;;;12.43;11.20;;;16.60;99.90;;;;;;5126727;28;20023;-81
2022/09/11 01:25:03;;;;;;;12.32;9.93;;;16.60;99.90;;;;;;5147848;27;20061;-81
2022/09/11 01:27:34;;;;;;;11.77;10.60;;;16.60;99.90;;;;;;5146630;27;20093;-81
2022/09/11 01:30:07;;;;;;;14.25;10.60;;;16.60;99.90;;;;;;5146343;27;20118;-80
2022/09/11 01:32:39;;;;;;;12.00;10.75;;;16.60;99.90;;;;;;5120371;28;20024;-79
2022/09/11 01:35:20;;;;;;;11.10;9.95;;;16.60;99.90;;;;;;5105280;28;20052;-81
2022/09/11 01:37:56;;;;;;;13.63;9.50;;;16.60;99.90;;;;;;5126424;27;20016;-81
2022/09/11 01:40:37;;;;;;;9.90;8.90;;;16.60;99.90;;;;;;5142949;27;20034;-82
2022/09/11 01:43:09;;;;;;;12.20;11.02;;;16.60;99.90;;;;;;5134814;27;20023;-81
2022/09/11 01:45:39;;;;;;;14.15;11.63;;;16.50;99.90;;;;;;5146238;27;20034;-81
2022/09/11 01:48:07;;;;;;;11.68;10.52;;;16.50;99.90;;;;;;5146117;27;20030;-81
2022/09/11 01:50:38;;;;;;;13.98;10.40;;;16.60;99.90;;;;;;5146022;27;20027;-80
2022/09/11 01:53:08;;;;;;;12.30;11.15;;;16.50;99.90;;;;;;5136117;27;20023;-81
2022/09/11 01:55:47;;;;;;;11.52;10.40;;;16.50;99.90;;;;;;5142919;27;20034;-81
2022/09/11 01:58:21;;;;;;;11.95;10.82;;;16.50;99.90;;;;;;5125465;28;20028;-81
2022/09/11 02:00:51;;;;;;;13.13;11.88;;;16.50;99.90;;;;;;5125628;28;20056;-81
2022/09/11 02:03:25;;;;;;;;;;;16.50;99.90;;;;;;5137940;27;20050;-80
2022/09/11 02:06:02;;;;;;;12.55;11.25;;;16.50;99.90;;;;;;5128983;27;19914;-80
2022/09/11 02:08:41;;;;;;;14.25;12.75;;;16.50;99.90;;;;;;5145971;27;20062;-80
2022/09/11 02:11:10;;;;;;;18.00;12.25;;;16.50;99.90;;;;;;5145992;28;20053;-80
2022/09/11 02:13:58;;;;;;;16.40;12.38;;;16.60;99.90;;;;;;5133127;27;20028;-80
2022/09/11 02:16:44;;;;;;;14.30;12.30;;;16.50;99.90;;;;;;5108451;28;20395;-80
2022/09/11 02:19:13;;;;;;;16.85;14.88;;;16.50;99.90;;;;;;5125276;28;20024;-81
2022/09/11 02:21:39;;;;;;;14.60;13.10;;;16.50;99.90;;;;;;5125302;28;20024;-80
2022/09/11 02:24:08;;;;;;;15.20;13.32;;;16.50;99.90;;;;;;5143725;28;20102;-81
2022/09/11 02:26:44;;;;;;;15.05;13.52;;;16.50;99.90;;;;;;5145867;27;20055;-80
2022/09/11 02:29:12;;;;;;;12.85;11.73;;;16.50;99.90;;;;;;5145651;28;20023;-80
2022/09/11 02:31:38;;;;;;;13.80;12.40;;;16.50;99.90;;;;;;5128362;28;20019;-80
2022/09/11 02:34:04;;;;;;;14.80;13.25;;;16.50;99.90;;;;;;5128330;28;20152;-80
2022/09/11 02:36:53;;;;;;;15.40;13.98;;;16.50;99.90;;;;;;5124896;28;20049;-80
2022/09/11 02:39:43;;;;;;;16.92;12.68;;;16.40;99.90;;;;;;5125067;28;20035;-80
2022/09/11 02:42:21;;;;;;;15.30;13.80;;;16.40;99.90;;;;;;5124882;28;20035;-80
2022/09/11 02:45:08;;;;;;;13.82;12.50;;;16.40;99.90;;;;;;5145847;28;20054;-81
2022/09/11 02:47:44;;;;;;;14.73;13.38;;;16.40;99.90;;;;;;5145680;28;20056;-81
2022/09/11 02:50:51;;;;;;;13.05;11.70;;;16.40;99.90;;;;;;5145431;28;20024;-80
2022/09/11 02:53:23;;;;;;;19.90;13.45;;;16.40;99.90;;;;;;5135273;28;20052;-80
2022/09/11 02:55:52;;;;;;;14.90;12.27;;;16.40;99.90;;;;;;5125008;28;20038;-80
2022/09/11 02:58:45;;;;;;;14.55;12.40;;;16.50;99.90;;;;;;5124978;28;20028;-81
2022/09/11 03:01:24;;;;;;;13.98;12.30;;;16.40;99.90;;;;;;5113134;28;20030;-80
2022/09/11 03:03:50;;;;;;;15.73;14.00;;;16.40;99.90;;;;;;5142933;27;20023;-80
2022/09/11 03:06:19;;;;;;;13.98;12.57;;;16.30;99.90;;;;;;5132242;27;20060;-80
2022/09/11 03:08:45;;;;;;;15.03;13.57;;;16.30;99.90;;;;;;5132193;27;20023;-80
2022/09/11 03:11:14;;;;;;;16.20;14.55;;;16.30;99.90;;;;;;5132178;27;20382;-80
2022/09/11 03:13:43;;;;;;;14.27;12.85;;;16.30;99.90;;;;;;5135513;27;20116;-80
2022/09/11 03:16:10;;;;;;;14.95;13.45;;;16.30;99.90;;;;;;5128532;28;20023;-80
2022/09/11 03:18:37;;;;;;;13.85;12.45;;;16.30;99.90;;;;;;5128257;28;20027;-80
2022/09/11 03:21:03;;;;;;;16.52;14.85;;;16.30;99.90;;;;;;5128354;28;20028;-80
2022/09/11 03:23:29;;;;;;;14.10;12.80;;;16.30;99.90;;;;;;5140369;27;20054;-80
2022/09/11 03:25:55;;;;;;;14.63;13.32;;;16.30;99.90;;;;;;5149737;27;20035;-80
2022/09/11 03:28:22;;;;;;;19.02;13.38;;;16.30;99.90;;;;;;5148975;27;20397;-80
2022/09/11 03:30:49;;;;;;;13.15;12.02;;;16.20;99.90;;;;;;5131634;27;20103;-80
2022/09/11 03:33:18;;;;;;;15.32;13.48;;;16.20;99.90;;;;;;5122535;27;20020;-80
2022/09/11 03:35:44;;;;;;;17.00;15.32;;;16.20;99.90;;;;;;5128019;28;20036;-80
2022/09/11 03:38:11;;;;;;;16.10;14.48;;;16.20;99.90;;;;;;5128248;28;20026;-80
2022/09/11 03:40:42;;;;;;;14.25;12.95;;;16.20;99.90;;;;;;5127944;28;20518;-80
2022/09/11 03:43:08;;;;;;;13.85;12.52;;;16.20;99.90;;;;;;5136154;27;20031;-80
2022/09/11 03:45:34;;;;;;;14.75;13.07;;;16.20;99.90;;;;;;5148563;27;20049;-80
2022/09/11 03:48:00;;;;;;;13.90;12.38;;;16.20;99.90;;;;;;5149773;27;20027;-80
2022/09/11 03:50:26;;;;;;;14.90;13.35;;;16.20;99.90;;;;;;5131404;27;20054;-80
2022/09/11 03:52:52;;;;;;;14.48;13.27;;;16.20;99.90;;;;;;5122722;28;20024;-80
2022/09/11 03:55:18;;;;;;;14.65;13.13;;;16.10;99.90;;;;;;5107104;28;20448;-80
2022/09/11 03:57:44;;;;;;;16.05;13.45;;;16.10;99.90;;;;;;5107092;28;20028;-80
2022/09/11 04:00:11;;;;;;;15.98;13.40;;;16.10;99.90;;;;;;5090638;28;20020;-80
2022/09/11 04:02:54;;;;;;;16.05;13.65;;;16.10;99.90;;;;;;5117320;27;20023;-80
2022/09/11 04:05:32;;;;;;;16.42;14.82;;;16.10;99.90;;;;;;5148218;27;20031;-80
2022/09/11 04:08:01;;;;;;;16.63;13.98;;;16.10;99.90;;;;;;5147967;27;20054;-80
2022/09/11 04:10:27;;;;;;;14.98;13.45;;;16.10;99.90;;;;;;5147925;27;20033;-80
2022/09/11 04:12:54;;;;;;;15.52;14.00;;;16.10;99.90;;;;;;5142999;27;20478;-80
2022/09/11 04:15:21;;;;;;;14.23;12.82;;;16.10;99.90;;;;;;5127226;28;20028;-80
2022/09/11 04:17:48;;;;;;;18.58;15.27;;;16.10;99.90;;;;;;5128478;28;20109;-80
2022/09/11 04:20:15;;;;;;;14.15;12.60;;;16.00;99.90;;;;;;5110346;28;20039;-80
2022/09/11 04:22:43;;;;;;;15.90;13.82;;;16.00;99.90;;;;;;5129510;27;20044;-80
2022/09/11 04:25:11;;;;;;;13.82;12.32;;;16.00;99.90;;;;;;5147632;27;20044;-80
2022/09/11 04:27:37;;;;;;;15.05;13.45;;;16.00;99.90;;;;;;5147934;27;20055;-80
2022/09/11 04:30:05;;;;;;;15.15;13.55;;;16.00;99.90;;;;;;5147421;27;20055;-80
2022/09/11 04:32:31;;;;;;;14.90;13.43;;;16.00;99.90;;;;;;5129426;27;20027;-80
2022/09/11 04:34:57;;;;;;;14.38;12.60;;;16.00;99.90;;;;;;5130995;27;20023;-80
2022/09/11 04:37:23;;;;;;;16.50;14.88;;;16.00;99.90;;;;;;5130265;27;20033;-80
2022/09/11 04:39:49;;;;;;;16.17;14.52;;;16.00;99.90;;;;;;5147348;27;20031;-80
2022/09/11 04:42:15;;;;;;;12.32;11.13;;;16.00;99.90;;;;;;5147377;27;20035;-80
2022/09/11 04:44:42;;;;;;;15.32;13.10;;;15.90;99.90;;;;;;5128072;27;20028;-80
2022/09/11 04:47:08;;;;;;;13.90;12.60;;;16.00;99.90;;;;;;5126647;28;20049;-80
2022/09/11 04:49:34;;;;;;;14.18;12.98;;;15.90;99.90;;;;;;5109743;28;20027;-80
2022/09/11 04:52:04;;;;;;;14.82;13.23;;;15.90;99.90;;;;;;5127838;28;20031;-80
2022/09/11 04:54:32;;;;;;;15.25;13.80;;;15.90;99.90;;;;;;5143258;27;20027;-80
2022/09/11 04:57:00;;;;;;;13.32;12.02;;;15.90;99.90;;;;;;5147186;27;20031;-80
2022/09/11 04:59:27;;;;;;;16.05;12.52;;;15.90;99.90;;;;;;5146973;27;20080;-80
2022/09/11 05:02:04;;;;;;;14.93;12.77;;;15.90;99.90;;;;;;5131347;27;20027;-80
2022/09/11 05:04:32;;;;;;;13.57;12.40;;;15.90;99.90;;;;;;5129192;27;20053;-80
2022/09/11 05:07:00;;;;;;;12.75;11.55;;;15.90;99.90;;;;;;5126523;28;20024;-80
2022/09/11 05:09:26;;;;;;;13.85;11.48;;;15.90;99.90;;;;;;5109226;28;20027;-80
2022/09/11 05:11:53;;;;;;;12.73;11.20;;;15.90;99.90;;;;;;5126478;27;20032;-80
2022/09/11 05:14:20;;;;;;;12.10;11.00;;;15.90;99.90;;;;;;5130200;27;20036;-80
2022/09/11 05:16:51;;;;;;;13.10;11.60;;;15.90;99.90;;;;;;5125273;28;20029;-80
2022/09/11 05:19:17;;;;;;;13.67;12.47;;;15.90;99.90;;;;;;5133997;27;20027;-80
2022/09/11 05:21:44;;;;;;;10.00;9.20;;;15.90;99.90;;;;;;5135108;27;20015;-80
2022/09/11 05:24:10;;;;;;;11.52;10.40;;;15.90;99.90;;;;;;5108702;28;20073;-80
2022/09/11 05:26:37;;;;;;;12.15;11.07;;;15.90;99.90;;;;;;5108891;28;20051;-80
2022/09/11 05:29:12;;;;;;;10.23;9.32;;;15.90;99.90;;;;;;5126120;28;20015;-80
2022/09/11 05:31:44;;;;;;;11.40;10.40;;;15.90;99.90;;;;;;5125496;28;20024;-80
2022/09/11 05:34:12;;;;;;;12.30;11.30;;;15.90;99.90;;;;;;5125454;28;20015;-80
2022/09/11 05:36:40;;;;;;;14.15;12.93;;;15.90;99.90;;;;;;5108789;28;20552;-80
2022/09/11 05:39:08;;;;;;;12.38;11.18;;;15.90;99.90;;;;;;5125898;28;20016;-80
2022/09/11 05:41:35;;;;;;;11.63;10.55;;;15.80;99.90;;;;;;5125208;28;20028;-80
2022/09/11 05:44:01;;;;;;;14.45;13.07;;;15.80;99.90;;;;;;5125560;28;20038;-80
2022/09/11 05:46:27;;;;;;;12.15;10.65;;;15.80;99.90;;;;;;5125755;28;20027;-80
2022/09/11 05:48:58;;;;;;;14.25;12.93;;;15.80;99.90;;;;;;5142948;27;20389;-80
2022/09/11 05:51:24;;;;;;;13.07;11.77;;;15.80;99.90;;;;;;5136934;27;20019;-80
2022/09/11 05:53:55;;;;;;;12.77;11.52;;;15.80;99.90;;;;;;5125219;28;20194;-80
2022/09/11 05:56:23;;;;;;;12.50;11.35;;;15.80;99.90;;;;;;5125193;28;20045;-80
2022/09/11 05:58:52;;;;;;;13.23;11.98;;;15.70;99.90;;;;;;5122326;28;20473;-80
2022/09/11 06:01:22;;;;;;;14.13;12.82;;;15.80;99.90;;;;;;5125055;28;20043;-80
2022/09/11 06:03:56;;;;;;;14.30;13.00;;;15.70;99.90;;;;;;5125482;28;20052;-80
2022/09/11 06:06:24;;;;;;;14.90;13.57;;;15.70;99.90;;;;;;5108522;28;20024;-80
2022/09/11 06:08:52;;;;;;;17.15;15.15;;;15.70;99.90;;;;;;5108376;28;20072;-80
2022/09/11 06:11:20;;;;;;;17.75;16.10;;;15.70;99.90;;;;;;5125000;28;20028;-79
2022/09/11 06:13:47;;;;;;;15.05;12.13;;;15.80;99.90;;;;;;5124898;28;20030;-80
2022/09/11 06:16:17;;;;;;;15.43;13.82;;;15.80;99.90;;;;;;5126589;28;20079;-80
2022/09/11 06:18:47;;;;;;;15.05;13.60;;;15.80;99.90;;;;;;5125093;28;20019;-80
2022/09/11 06:21:18;;;;;;;14.82;13.40;;;15.80;99.90;;;;;;5125022;28;20026;-81
2022/09/11 06:23:52;;;;;;;16.05;14.45;;;15.80;99.90;;;;;;5124801;28;20051;-80
2022/09/11 06:26:21;;;;;;;16.13;14.60;;;15.80;99.90;;;;;;5125214;28;20032;-80
2022/09/11 06:28:47;;;;;;;15.02;13.57;;;15.80;99.90;;;;;;5108243;28;20114;-80
2022/09/11 06:31:18;;;;;;;17.98;16.17;;;15.80;99.90;;;;;;5124936;28;20413;-80
2022/09/11 06:33:46;;;;;;;14.82;13.48;;;15.80;99.90;;;;;;5125857;28;20031;-80
2022/09/11 06:36:13;;;;;;;12.57;11.48;;;15.80;99.90;;;;;;5129281;28;20016;-80
2022/09/11 06:38:39;;;;;;;14.55;13.15;;;15.80;99.90;;;;;;5129200;28;20059;-80
2022/09/11 06:41:11;;;;;;;13.32;12.02;;;15.80;99.90;;;;;;5128312;28;20023;-80
2022/09/11 06:43:37;;;;;;;13.50;12.23;;;15.80;99.90;;;;;;5129073;28;20032;-80
2022/09/11 06:46:04;;;;;;;14.60;13.10;;;15.80;99.90;;;;;;5111805;28;20024;-80
2022/09/11 06:48:32;;;;;;;14.43;13.02;;;15.70;99.90;;;;;;5112233;28;20023;-80
2022/09/11 06:51:04;;;;;;;15.18;13.70;;;15.80;99.90;;;;;;5118316;27;20035;-80
2022/09/11 06:53:32;;;;;;;12.05;10.93;;;15.80;99.90;;;;;;5149458;27;20027;-80
2022/09/11 06:56:05;;;;;;;14.30;13.00;;;15.70;99.90;;;;;;5132817;27;20026;-80
2022/09/11 06:58:32;;;;;;;14.25;13.00;;;15.80;99.90;;;;;;5145958;27;20074;-80
2022/09/11 07:01:05;;;;;;;14.00;12.73;;;15.80;99.90;;;;;;5135381;27;20044;-80
2022/09/11 07:03:32;;;;;;;14.38;12.98;;;15.80;99.90;;;;;;5149383;27;20392;-80
2022/09/11 07:06:00;;;;;;;13.32;11.98;;;15.80;99.90;;;;;;5149212;27;20019;-80
2022/09/11 07:08:27;;;;;;;14.98;13.63;;;15.80;99.90;;;;;;5132134;27;20053;-80
2022/09/11 07:10:53;;;;;;;14.90;13.52;;;15.80;99.90;;;;;;5142918;27;20035;-80
2022/09/11 07:13:23;;;;;;;13.98;12.77;;;15.80;99.90;;;;;;5128257;28;20028;-81
2022/09/11 07:15:59;;;;;;;14.70;13.43;;;15.80;99.90;;;;;;5111444;28;20022;-80
2022/09/11 07:18:25;;;;;;;14.55;13.02;;;15.80;99.90;;;;;;5126787;28;20034;-80
2022/09/11 07:20:50;;;;;;;13.90;12.63;;;15.80;99.90;;;;;;5107721;28;20110;-80
2022/09/11 07:23:18;;;;;;;13.88;12.43;;;15.80;99.90;;;;;;5104251;27;20055;-80
2022/09/11 07:25:44;;;;;;;15.55;14.15;;;15.80;99.90;;;;;;5111060;28;20028;-80
2022/09/11 07:28:11;;;;;;;13.73;12.45;;;15.80;99.90;;;;;;5128285;28;20035;-80
2022/09/11 07:30:39;;;;;;;15.07;13.68;;;15.80;99.90;;;;;;5128207;27;20047;-80
2022/09/11 07:33:05;;;;;;;13.05;11.77;;;15.90;99.90;;;;;;5128138;27;20397;-80
2022/09/11 07:35:31;;;;;;;14.77;13.40;;;15.90;99.90;;;;;;5128058;28;20028;-80
2022/09/11 07:37:57;;;;;;;15.48;14.07;;;15.90;99.90;;;;;;5128117;28;20019;-80
2022/09/11 07:40:26;;;;;;;13.48;12.25;;;15.90;99.90;;;;;;5112482;27;20026;-80
2022/09/11 07:42:52;;;;;;;13.63;12.38;;;16.00;99.90;;;;;;5148683;27;20095;-80
2022/09/11 07:45:20;;;;;;;14.70;13.38;;;16.00;99.90;;;;;;5147782;27;20027;-80
2022/09/11 07:47:46;;;;;;;13.20;11.90;;;16.00;99.90;;;;;;5148485;27;20019;-80
2022/09/11 07:50:11;;;;;;;15.35;13.95;;;16.00;99.90;;;;;;5131492;27;20441;-80
2022/09/11 07:52:37;;;;;;;15.85;14.43;;;16.00;99.90;;;;;;5108312;28;20028;-80
2022/09/11 07:55:05;;;;;;;15.38;13.98;;;16.10;99.90;;;;;;5107222;28;20070;-80
2022/09/11 07:57:33;;;;;;;15.25;13.77;;;16.10;99.90;;;;;;5107161;28;20020;-80
2022/09/11 08:00:03;;;;;;;13.90;12.43;;;16.10;99.90;;;;;;5124018;28;20097;-80
2022/09/11 08:02:47;;;;;;;15.25;13.82;;;16.10;99.90;;;;;;5135394;27;20285;-81
2022/09/11 08:05:14;;;;;;;14.65;13.25;;;16.20;99.90;;;;;;5119854;27;20023;-80
2022/09/11 08:07:40;;;;;;;15.88;12.70;;;16.20;99.90;;;;;;5138163;27;20027;-80
2022/09/11 08:10:10;;;;;;;16.70;15.07;;;16.20;99.90;;;;;;5119308;27;20024;-80
2022/09/11 08:12:36;;;;;;;;;;;16.20;99.90;;;;;;5132949;27;20015;-80
2022/09/11 08:15:02;;;;;;;13.75;12.32;;;16.20;99.90;;;;;;5126830;28;19908;-80
2022/09/11 08:17:29;;;;;;;14.90;13.40;;;16.20;99.90;;;;;;5126363;28;20556;-80
2022/09/11 08:19:56;;;;;;;14.88;13.48;;;16.20;99.90;;;;;;5126671;28;20024;-80
2022/09/11 08:22:22;;;;;;;15.82;13.85;;;16.20;99.90;;;;;;5127811;27;20046;-80
2022/09/11 08:24:48;;;;;;;16.23;14.73;;;16.20;99.90;;;;;;5075797;28;20032;-80
2022/09/11 08:27:16;;;;;;;13.73;12.43;;;16.30;99.90;;;;;;5125729;28;20051;-80
2022/09/11 08:29:44;;;;;;;16.63;15.18;;;16.30;99.90;;;;;;5126553;28;20032;-81
2022/09/11 08:32:12;;;;;;;17.52;15.88;;;16.30;99.90;;;;;;5126795;28;20039;-80
2022/09/11 08:34:38;;;;;;;14.65;13.15;;;16.30;99.90;;;;;;5126246;28;20023;-80
2022/09/11 08:37:04;;;;;;;17.88;15.95;;;16.40;99.90;;;;;;5109605;28;20386;-80
2022/09/11 08:39:32;;;;;;;15.10;13.68;;;16.40;99.90;;;;;;5126652;28;20051;-80
2022/09/11 08:42:11;;;;;;;16.85;14.25;;;16.50;99.90;;;;;;5107044;28;20376;-80
2022/09/11 08:44:48;;;;;;;14.50;12.52;;;16.50;99.90;;;;;;5126311;27;20016;-80
2022/09/11 08:47:27;;;;;;;19.27;15.02;;;16.60;99.90;;;;;;5111044;28;20015;-80
2022/09/11 08:50:07;;;;;;;15.52;13.93;;;16.60;99.90;;;;;;5125434;28;20027;-80
2022/09/11 08:52:35;;;;;;;16.10;14.43;;;16.70;99.90;;;;;;5126145;27;20039;-80
2022/09/11 08:55:02;;;;;;;15.60;14.00;;;16.70;99.90;;;;;;5125964;28;20011;-80
2022/09/11 08:58:17;;;;;;;15.95;14.43;;;16.70;99.90;;;;;;5125181;28;20088;-80
2022/09/11 09:01:30;;;;;;;19.58;15.70;;;16.70;99.90;;;;;;5105564;28;20031;-80
2022/09/11 09:04:02;;;;;;;17.50;15.80;;;16.70;99.90;;;;;;5085264;28;20028;-80
2022/09/11 09:06:55;;;;;;;19.98;16.05;;;16.70;99.90;;;;;;5086225;28;20456;-80
2022/09/11 09:09:21;;;;;;;18.98;17.05;;;16.80;99.90;;;;;;5116343;27;20042;-80
2022/09/11 09:11:50;;;;;;;17.08;15.27;;;16.90;99.90;;;;;;5109642;28;20035;-80
2022/09/11 09:14:45;;;;;;;17.08;14.85;;;17.00;99.90;;;;;;5108062;28;20023;-80
2022/09/11 09:17:18;;;;;;;17.58;14.68;;;17.00;99.90;;;;;;5131297;27;20012;-80
2022/09/11 09:19:59;;;;;;;18.42;16.67;;;16.90;99.90;;;;;;5123248;27;20133;-80
2022/09/11 09:22:46;;;;;;;19.95;17.52;;;16.90;99.90;;;;;;5107207;28;20067;-80
2022/09/11 09:25:17;;;;;;;15.95;14.45;;;16.90;99.90;;;;;;5113522;28;20046;-81
2022/09/11 09:27:48;;;;;;;18.95;16.88;;;16.90;99.90;;;;;;5119377;28;20038;-81
2022/09/11 09:30:17;;;;;;;19.10;17.15;;;16.90;99.90;;;;;;5146975;27;20034;-81
2022/09/11 09:32:54;;;;;;;16.17;14.48;;;16.90;99.90;;;;;;5106728;28;20036;-81
2022/09/11 09:35:36;;;;;;;19.00;16.65;;;17.00;99.90;;;;;;5124941;28;20057;-81
2022/09/11 09:38:11;;;;;;;21.95;17.35;;;17.00;99.90;;;;;;5124594;28;20024;-81
2022/09/11 09:40:47;;;;;;;19.98;17.55;;;17.00;99.90;;;;;;5125571;28;20028;-81
2022/09/11 09:43:19;;;;;;;19.75;15.63;;;17.00;99.90;;;;;;5131928;27;20024;-81
2022/09/11 09:45:58;;;;;;;22.92;16.17;;;17.00;99.90;;;;;;5126756;28;20091;-81
2022/09/11 09:48:24;;;;;;;16.75;15.13;;;17.00;99.90;;;;;;5125274;28;20134;-81
2022/09/11 09:50:50;;;;;;;18.60;16.70;;;17.00;99.90;;;;;;5126079;27;20047;-81
2022/09/11 09:53:33;;;;;;;16.23;14.63;;;17.00;99.90;;;;;;5126718;28;20392;-81
2022/09/11 09:56:00;;;;;;;17.17;15.50;;;16.90;99.90;;;;;;5124953;28;20019;-81
2022/09/11 09:58:32;;;;;;;18.77;16.85;;;17.10;99.90;;;;;;5126272;28;20040;-82
2022/09/11 10:00:58;;;;;;;19.67;16.80;;;17.30;99.90;;;;;;5126680;27;20057;-82
2022/09/11 10:03:25;;;;;;;17.20;15.35;;;17.40;99.90;;;;;;5125643;28;20020;-81
2022/09/11 10:05:53;;;;;;;18.65;15.68;;;17.40;99.90;;;;;;5125167;28;20051;-81
2022/09/11 10:08:37;;;;;;;18.80;14.82;;;17.40;99.90;;;;;;5125197;28;20016;-81
2022/09/11 10:11:06;;;;;;;15.73;14.10;;;17.40;99.90;;;;;;5125632;28;20031;-81
2022/09/11 10:13:35;;;;;;;16.08;14.48;;;17.40;99.90;;;;;;5126156;28;20027;-81
2022/09/11 10:16:03;;;;;;;21.08;16.42;;;17.30;99.90;;;;;;5125540;28;20054;-82
2022/09/11 10:18:31;;;;;;;19.35;17.30;;;17.30;99.90;;;;;;5125139;28;20030;-81
2022/09/11 10:21:12;;;;;;;18.98;15.13;;;17.30;99.90;;;;;;5129312;28;20055;-81
2022/09/11 10:23:58;;;;;;;18.52;16.55;;;17.30;99.90;;;;;;5126074;28;20059;-81
2022/09/11 10:26:28;;;;;;;15.18;13.52;;;17.30;99.90;;;;;;5125787;28;20031;-82
2022/09/11 10:29:00;;;;;;;19.42;15.15;;;17.40;99.90;;;;;;5124085;28;20019;-81
2022/09/11 10:31:26;;;;;;;17.05;15.05;;;17.60;99.90;;;;;;5125431;28;20023;-81
2022/09/11 10:33:58;;;;;;;15.15;13.70;;;17.70;99.90;;;;;;5125831;28;20038;-81
2022/09/11 10:36:27;;;;;;;17.33;14.13;;;17.60;99.90;;;;;;5124499;28;20032;-81
2022/09/11 10:38:58;;;;;;;15.05;13.57;;;17.60;99.90;;;;;;5124192;28;20027;-81
2022/09/11 10:41:26;;;;;;;16.23;14.43;;;17.50;99.90;;;;;;5124182;28;20023;-81
2022/09/11 10:44:00;;;;;;;14.73;13.40;;;17.50;99.90;;;;;;5124249;28;20024;-82
2022/09/11 10:46:33;;;;;;;17.80;15.02;;;17.50;99.90;;;;;;5117087;28;20039;-81
2022/09/11 10:49:08;;;;;;;16.63;13.40;;;17.50;99.90;;;;;;5126587;28;20019;-82
2022/09/11 10:51:37;;;;;;;12.50;11.23;;;17.50;99.90;;;;;;5117695;28;20085;-81
2022/09/11 10:54:15;;;;;;;15.80;14.13;;;17.80;99.90;;;;;;5099402;28;20561;-81
2022/09/11 10:57:21;;;;;;;14.32;12.88;;;18.00;99.90;;;;;;5111906;28;20311;-81
2022/09/11 11:00:08;;;;;;;14.15;12.70;;;18.10;99.90;;;;;;5124128;28;20032;-82
2022/09/11 11:02:39;;;;;;;13.70;12.30;;;18.00;99.90;;;;;;5105405;28;20028;-81
2022/09/11 11:05:30;;;;;;;12.90;11.52;;;17.90;99.90;;;;;;5119969;28;20051;-81
2022/09/11 11:08:14;;;;;;;14.95;13.35;;;17.90;99.90;;;;;;5125679;28;20035;-81
2022/09/11 11:11:04;;;;;;;12.98;11.68;;;18.10;99.90;;;;;;5124551;28;20031;-80
2022/09/11 11:13:44;;;;;;;14.38;12.93;;;18.30;99.90;;;;;;5127033;28;20060;-80
2022/09/11 11:16:39;;;;;;;31.48;13.68;;;18.50;99.90;;;;;;5127090;28;20020;-81
2022/09/11 11:19:36;;;;;;;12.10;10.88;;;18.70;99.90;;;;;;5143869;27;20024;-81
2022/09/11 11:22:13;;;;;;;14.82;11.18;;;18.80;99.90;;;;;;5135368;27;20023;-81
2022/09/11 11:25:04;;;;;;;10.77;9.70;;;18.80;99.90;;;;;;5130721;27;20379;-81
2022/09/11 11:27:38;;;;;;;17.10;12.43;;;18.90;99.90;;;;;;5129662;27;20023;-81
2022/09/11 11:30:20;;;;;;;12.95;9.50;;;18.90;99.90;;;;;;5129288;27;20020;-81
2022/09/11 11:33:04;;;;;;;11.02;10.00;;;18.70;99.90;;;;;;5107708;28;20032;-81
2022/09/11 11:35:38;;;;;;;11.80;10.73;;;18.60;99.90;;;;;;5107447;28;20050;-81
2022/09/11 11:38:24;;;;;;;11.80;10.70;;;18.50;99.90;;;;;;5117818;27;20023;-81
2022/09/11 11:41:03;;;;;;;10.77;9.73;;;18.50;99.90;;;;;;5129203;27;20458;-81
2022/09/11 11:43:33;;;;;;;12.15;10.93;;;18.50;99.90;;;;;;5129192;27;20042;-81
2022/09/11 11:46:18;;;;;;;11.05;9.90;;;18.40;99.90;;;;;;5124268;28;20091;-81
2022/09/11 11:49:01;;;;;;;18.27;9.68;;;18.60;99.90;;;;;;5107409;28;20044;-81
2022/09/11 11:51:38;;;;;;;10.95;9.95;;;18.90;99.90;;;;;;5107235;28;20028;-81
2022/09/11 11:54:07;;;;;;;13.43;10.02;;;19.10;99.90;;;;;;5108598;28;20035;-82
2022/09/11 11:56:48;;;;;;;12.15;11.02;;;19.30;99.90;;;;;;5108388;28;20091;-81
2022/09/11 11:59:42;;;;;;;11.57;10.35;;;19.40;99.90;;;;;;5107252;28;20028;-81
2022/09/11 12:02:08;;;;;;;10.20;9.20;;;19.40;99.90;;;;;;5108596;28;20046;-81
2022/09/11 12:04:52;;;;;;;10.65;9.55;;;19.40;99.90;;;;;;5090210;28;20020;-82
2022/09/11 12:07:21;;;;;;;9.40;8.48;;;19.40;99.90;;;;;;5090013;28;20070;-82
2022/09/11 12:09:52;;;;;;;10.77;9.73;;;19.50;99.90;;;;;;5108399;28;20026;-82
2022/09/11 12:12:20;;;;;;;9.25;8.20;;;19.40;99.90;;;;;;5108320;28;20063;-81
2022/09/11 12:14:54;;;;;;;9.30;8.35;;;19.20;99.90;;;;;;5122724;27;20022;-82
2022/09/11 12:17:27;;;;;;;7.95;7.25;;;19.10;99.90;;;;;;5147701;27;20027;-81
2022/09/11 12:20:29;;;;;;;9.20;7.45;;;19.00;99.90;;;;;;5147258;27;20042;-81
2022/09/11 12:22:55;;;;;;;13.02;10.82;;;19.00;99.90;;;;;;5103927;28;20047;-81
2022/09/11 12:25:20;;;;;;;9.55;8.60;;;18.90;99.90;;;;;;5126987;28;20030;-81
2022/09/11 12:27:47;;;;;;;9.65;8.73;;;18.90;99.90;;;;;;5127286;28;20032;-82
2022/09/11 12:30:16;;;;;;;9.82;8.93;;;19.00;99.90;;;;;;5124873;27;20059;-81
2022/09/11 12:32:56;;;;;;;10.98;9.50;;;19.10;99.90;;;;;;5117466;28;20031;-81
2022/09/11 12:35:21;;;;;;;9.80;8.90;;;19.10;99.90;;;;;;5127075;28;20031;-81
2022/09/11 12:37:57;;;;;;;11.05;8.43;;;19.30;99.90;;;;;;5126859;28;20031;-81
2022/09/11 12:41:16;;;;;;;7.97;7.22;;;19.40;99.90;;;;;;5128107;28;20033;-81
2022/09/11 12:43:41;;;;;;;9.85;8.02;;;19.50;99.90;;;;;;5115317;28;20047;-82
2022/09/11 12:46:11;;;;;;;11.45;8.40;;;19.60;99.90;;;;;;5109641;28;20115;-81
2022/09/11 12:48:37;;;;;;;8.15;7.45;;;19.60;99.90;;;;;;5127632;28;20428;-81
2022/09/11 12:51:06;;;;;;;10.13;6.57;;;19.70;99.90;;;;;;5126647;28;20073;-81
2022/09/11 12:53:35;;;;;;;10.02;7.38;;;19.70;99.90;;;;;;5125863;28;20024;-81